createdAt,value
2022-08-05T00:00:17.008Z,98370.94
2022-08-05T00:02:50.902Z,98368.47
2022-08-05T00:06:02.817Z,98369.03
2022-08-05T00:08:20.003Z,98361.91
2022-08-05T00:10:53.532Z,98364.91
2022-08-05T00:13:19.998Z,98350.41
2022-08-05T00:15:54.913Z,98356.44
2022-08-05T00:18:22.961Z,98366.28
2022-08-05T00:20:50.303Z,98365.72
2022-08-05T00:23:17.227Z,98376.09
2022-08-05T00:25:57.360Z,98369.81
2022-08-05T00:28:29.599Z,98379.69
2022-08-05T00:30:56.441Z,98388.41
2022-08-05T00:34:54.422Z,98383.47
2022-08-05T00:36:18.526Z,98385.16
2022-08-05T00:39:02.309Z,98370.06
2022-08-05T00:41:51.408Z,98380.47
2022-08-05T00:44:18.958Z,98381.56
2022-08-05T00:46:47.404Z,98369.22
2022-08-05T00:49:20.895Z,98370.63
2022-08-05T00:51:52.013Z,98379.38
2022-08-05T00:54:18.852Z,98374.69
2022-08-05T00:56:51.419Z,98379.88
2022-08-05T00:59:18.428Z,98377.66
2022-08-05T01:01:48.544Z,98373.03
2022-08-05T01:04:16.163Z,98374.91
2022-08-05T01:06:48.968Z,98379.25
2022-08-05T01:09:19.836Z,98385.84
2022-08-05T01:11:51.727Z,98387.75
2022-08-05T01:14:28.070Z,98385.25
2022-08-05T01:17:29.637Z,98385.25
2022-08-05T01:20:25.058Z,98381.91
2022-08-05T01:23:24.579Z,98390.94
2022-08-05T01:26:21.452Z,98402.16
2022-08-05T01:29:05.260Z,98409.72
2022-08-05T01:31:48.101Z,98409.09
2022-08-05T01:34:35.855Z,98411.00
2022-08-05T01:37:07.938Z,98412.88
2022-08-05T01:39:47.756Z,98406.03
2022-08-05T01:42:17.375Z,98411.19
2022-08-05T01:44:45.674Z,98402.13
2022-08-05T01:47:21.264Z,98397.53
2022-08-05T01:50:00.110Z,98401.34
2022-08-05T01:52:28.893Z,98405.97
2022-08-05T01:55:00.477Z,98408.34
2022-08-05T01:58:13.736Z,98408.19
2022-08-05T02:00:18.722Z,98409.63
2022-08-05T02:02:59.916Z,98412.59
2022-08-05T02:05:35.987Z,98417.50
2022-08-05T02:08:04.196Z,98421.88
2022-08-05T02:24:31.723Z,98423.31
2022-08-05T02:27:10.262Z,98412.34
2022-08-05T02:29:58.615Z,98412.88
2022-08-05T02:32:30.606Z,98411.47
2022-08-05T02:35:13.526Z,98415.03
2022-08-05T02:37:47.594Z,98399.19
2022-08-05T02:40:20.531Z,98405.75
2022-08-05T02:42:52.779Z,98410.09
2022-08-05T02:45:21.255Z,98403.50
2022-08-05T02:48:06.970Z,98407.00
2022-08-05T02:50:43.868Z,98406.66
2022-08-05T02:53:18.803Z,98397.38
2022-08-05T02:55:53.730Z,98399.59
2022-08-05T02:58:23.091Z,98394.66
2022-08-05T03:00:56.203Z,98385.28
2022-08-05T03:03:23.549Z,98381.19
2022-08-05T03:06:54.785Z,98382.56
2022-08-05T03:08:42.627Z,98380.34
2022-08-05T03:11:54.694Z,98382.50
2022-08-05T03:14:09.859Z,98377.56
2022-08-05T03:16:40.522Z,98371.59
2022-08-05T03:19:17.218Z,98374.25
2022-08-05T03:21:53.606Z,98367.22
2022-08-05T03:24:29.968Z,98367.53
2022-08-05T03:26:59.010Z,98380.03
2022-08-05T03:29:59.605Z,98377.78
2022-08-05T03:32:14.388Z,98377.00
2022-08-05T03:34:42.360Z,98378.91
2022-08-05T03:37:18.850Z,98380.78
2022-08-05T03:39:58.975Z,98386.31
2022-08-05T03:42:27.200Z,98387.44
2022-08-05T03:44:55.679Z,98375.16
2022-08-05T03:47:24.096Z,98385.13
2022-08-05T03:49:51.515Z,98390.63
2022-08-05T03:52:37.066Z,98401.81
2022-08-05T03:56:03.680Z,98403.13
2022-08-05T03:58:10.655Z,98410.13
2022-08-05T04:00:41.965Z,98411.72
2022-08-05T04:03:26.650Z,98407.63
2022-08-05T04:05:57.906Z,98412.84
2022-08-05T04:08:30.082Z,98420.53
2022-08-05T04:11:04.056Z,98422.34
2022-08-05T04:13:49.949Z,98431.75
2022-08-05T04:16:25.254Z,98437.41
2022-08-05T04:18:58.862Z,98444.91
2022-08-05T04:22:10.119Z,98455.31
2022-08-05T04:24:18.711Z,98464.34
2022-08-05T04:26:46.690Z,98487.59
2022-08-05T04:29:13.193Z,98506.69
2022-08-05T04:31:40.890Z,98520.16
2022-08-05T04:34:31.756Z,98536.59
2022-08-05T04:36:54.427Z,98563.41
2022-08-05T04:39:21.696Z,98551.19
2022-08-05T04:41:48.581Z,98550.69
2022-08-05T04:44:21.440Z,98560.84
2022-08-05T04:46:56.835Z,98549.41
2022-08-05T04:49:39.169Z,98571.06
2022-08-05T04:52:11.764Z,98573.53
2022-08-05T04:54:38.203Z,98581.16
2022-08-05T04:57:04.757Z,98580.84
2022-08-05T04:59:39.168Z,98566.28
2022-08-05T05:02:37.345Z,98570.03
2022-08-05T05:05:01.736Z,98581.00
2022-08-05T05:07:29.687Z,98595.56
2022-08-05T05:09:59.061Z,98596.44
2022-08-05T05:12:29.076Z,98605.91
2022-08-05T05:14:55.548Z,98603.13
2022-08-05T05:17:24.620Z,98599.06
2022-08-05T05:20:09.792Z,98611.94
2022-08-05T05:22:40.771Z,98616.53
2022-08-05T05:25:16.796Z,98604.72
2022-08-05T05:27:53.677Z,98610.75
2022-08-05T05:30:31.496Z,98619.16
2022-08-05T05:33:09.339Z,98625.63
2022-08-05T05:35:43.618Z,98630.41
2022-08-05T05:38:13.353Z,98626.97
2022-08-05T05:40:48.019Z,98615.75
2022-08-05T05:43:27.544Z,98605.94
2022-08-05T05:46:03.305Z,98593.69
2022-08-05T05:48:31.597Z,98601.41
2022-08-05T05:50:58.099Z,98615.69
2022-08-05T05:53:24.532Z,98617.38
2022-08-05T05:56:00.762Z,98621.19
2022-08-05T05:58:31.514Z,98631.09
2022-08-05T06:01:12.397Z,98633.88
2022-08-05T06:04:00.924Z,98634.44
2022-08-05T06:06:30.802Z,98623.75
2022-08-05T06:08:59.264Z,98622.38
2022-08-05T06:11:25.944Z,98611.38
2022-08-05T06:13:54.148Z,98609.19
2022-08-05T06:16:29.590Z,98617.97
2022-08-05T06:19:00.850Z,98627.03
2022-08-05T06:21:36.786Z,98622.66
2022-08-05T06:24:11.298Z,98626.22
2022-08-05T06:26:52.121Z,98633.34
2022-08-05T06:29:45.330Z,98639.84
2022-08-05T06:32:25.292Z,98640.81
2022-08-05T06:34:56.776Z,98648.94
2022-08-05T06:37:39.462Z,98653.78
2022-08-05T06:40:18.079Z,98649.22
2022-08-05T06:42:52.260Z,98651.00
2022-08-05T06:45:44.105Z,98651.03
2022-08-05T06:48:47.060Z,98662.00
2022-08-05T06:50:56.996Z,98665.25
2022-08-05T06:53:28.690Z,98661.31
2022-08-05T06:55:59.885Z,98655.03
2022-08-05T06:58:34.697Z,98651.88
2022-08-05T07:01:05.059Z,98646.19
2022-08-05T07:03:33.202Z,98650.81
2022-08-05T07:06:05.786Z,98667.25
2022-08-05T07:08:47.822Z,98679.31
2022-08-05T07:11:22.130Z,98681.44
2022-08-05T07:14:20.054Z,98692.25
2022-08-05T07:18:08.176Z,98689.00
2022-08-05T07:22:33.032Z,98695.22
2022-08-05T07:25:21.697Z,98691.34
2022-08-05T07:27:58.772Z,98696.53
2022-08-05T07:30:33.638Z,98684.97
2022-08-05T07:33:05.162Z,98674.50
2022-08-05T07:36:03.869Z,98678.59
2022-08-05T07:38:33.991Z,98672.19
2022-08-05T07:41:35.045Z,98674.72
2022-08-05T07:43:58.967Z,98676.28
2022-08-05T07:46:30.638Z,98672.41
2022-08-05T07:49:02.591Z,98677.94
2022-08-05T07:51:36.296Z,98656.53
2022-08-05T07:54:04.798Z,98648.94
2022-08-05T07:57:02.739Z,98651.66
2022-08-05T07:59:18.018Z,98643.38
2022-08-05T08:01:51.787Z,98643.09
2022-08-05T08:04:37.598Z,98636.84
2022-08-05T08:07:07.415Z,98635.13
2022-08-05T08:09:34.886Z,98619.56
2022-08-05T08:12:07.760Z,98611.50
2022-08-05T08:14:46.779Z,98617.13
2022-08-05T08:17:16.270Z,98618.19
2022-08-05T08:20:21.418Z,98612.53
2022-08-05T08:22:32.307Z,98614.63
2022-08-05T08:25:03.309Z,98626.72
2022-08-05T08:27:37.988Z,98630.44
2022-08-05T08:30:18.991Z,98616.25
2022-08-05T08:32:56.843Z,98615.78
2022-08-05T08:35:26.696Z,98612.69
2022-08-05T08:37:56.348Z,98612.97
2022-08-05T08:40:23.685Z,98610.88
2022-08-05T08:42:52.993Z,98609.25
2022-08-05T08:45:27.182Z,98614.75
2022-08-05T08:48:06.885Z,98618.53
2022-08-05T08:51:03.793Z,98613.16
2022-08-05T08:53:37.231Z,98604.97
2022-08-05T08:56:06.160Z,98604.84
2022-08-05T08:58:43.476Z,98598.44
2022-08-05T09:01:15.746Z,98601.44
2022-08-05T09:03:54.421Z,98595.06
2022-08-05T09:06:24.235Z,98588.47
2022-08-05T09:08:55.900Z,98598.91
2022-08-05T09:11:51.671Z,98589.63
2022-08-05T09:14:58.582Z,98588.66
2022-08-05T09:16:57.921Z,98584.00
2022-08-05T09:19:36.204Z,98574.59
2022-08-05T09:22:23.393Z,98571.88
2022-08-05T09:25:01.049Z,98562.13
2022-08-05T09:28:04.601Z,98561.28
2022-08-05T09:30:23.490Z,98557.22
2022-08-05T09:32:51.491Z,98555.13
2022-08-05T09:35:26.747Z,98565.53
2022-08-05T09:38:16.885Z,98560.63
2022-08-05T09:40:52.678Z,98565.31
2022-08-05T09:43:41.158Z,98573.41
2022-08-05T09:46:28.070Z,98560.13
2022-08-05T09:49:08.032Z,98558.91
2022-08-05T09:51:42.235Z,98560.88
2022-08-05T09:54:09.510Z,98549.59
2022-08-05T09:56:38.500Z,98554.75
2022-08-05T09:59:17.025Z,98547.25
2022-08-05T10:01:46.482Z,98539.38
2022-08-05T10:04:15.946Z,98542.16
2022-08-05T10:06:59.086Z,98536.69
2022-08-05T10:09:27.987Z,98536.25
2022-08-05T10:11:55.008Z,98524.59
2022-08-05T10:14:32.256Z,98517.44
2022-08-05T10:17:39.816Z,98523.50
2022-08-05T10:20:09.833Z,98518.91
2022-08-05T10:22:38.076Z,98521.47
2022-08-05T10:25:10.270Z,98521.59
2022-08-05T10:28:13.662Z,98518.41
2022-08-05T10:31:20.651Z,98515.88
2022-08-05T10:33:15.200Z,98510.84
2022-08-05T10:35:44.072Z,98520.38
2022-08-05T10:38:13.272Z,98515.78
2022-08-05T10:40:43.461Z,98509.63
2022-08-05T10:43:35.953Z,98503.97
2022-08-05T10:46:06.802Z,98491.09
2022-08-05T10:48:57.070Z,98499.16
2022-08-05T10:51:28.391Z,98489.09
2022-08-05T10:54:05.808Z,98498.03
2022-08-05T10:56:53.303Z,98497.69
2022-08-05T11:00:03.770Z,98492.28
2022-08-05T11:02:37.597Z,98482.34
2022-08-05T11:05:08.599Z,98481.16
2022-08-05T11:08:02.732Z,98484.25
2022-08-05T11:10:37.066Z,98480.13
2022-08-05T11:13:05.521Z,98477.16
2022-08-05T11:15:59.089Z,98470.25
2022-08-05T11:18:33.954Z,98475.28
2022-08-05T11:21:02.789Z,98466.00
2022-08-05T11:24:04.590Z,98470.34
2022-08-05T11:26:40.863Z,98467.09
2022-08-05T11:29:40.120Z,98478.13
2022-08-05T11:32:27.210Z,98475.84
2022-08-05T11:34:55.282Z,98485.16
2022-08-05T11:38:30.466Z,98491.34
2022-08-05T11:41:35.621Z,98493.69
2022-08-05T11:44:06.252Z,98492.19
2022-08-05T11:47:09.597Z,98488.31
2022-08-05T11:49:33.761Z,98494.78
2022-08-05T11:52:01.486Z,98491.81
2022-08-05T11:54:37.995Z,98492.97
2022-08-05T11:57:08.497Z,98499.47
2022-08-05T11:59:50.983Z,98492.16
2022-08-05T12:02:30.272Z,98506.19
2022-08-05T12:05:00.325Z,98498.53
2022-08-05T12:08:08.420Z,98500.53
2022-08-05T12:10:22.806Z,98503.53
2022-08-05T12:12:59.702Z,98504.69
2022-08-05T12:15:37.833Z,98503.44
2022-08-05T12:18:11.962Z,98520.72
2022-08-05T12:20:39.343Z,98508.97
2022-08-05T12:23:09.586Z,98503.75
2022-08-05T12:25:51.961Z,98511.75
2022-08-05T12:28:37.830Z,98506.25
2022-08-05T12:31:05.367Z,98507.06
2022-08-05T12:33:36.537Z,98499.38
2022-08-05T12:36:07.915Z,98505.00
2022-08-05T12:38:37.968Z,98510.41
2022-08-05T12:41:13.318Z,98506.22
2022-08-05T12:43:58.688Z,98505.56
2022-08-05T12:46:29.758Z,98508.97
2022-08-05T12:49:12.883Z,98508.50
2022-08-05T12:52:12.602Z,98509.59
2022-08-05T12:54:50.996Z,98512.72
2022-08-05T12:57:19.535Z,98513.53
2022-08-05T13:02:03.683Z,98511.28
2022-08-05T13:02:39.837Z,98510.72
2022-08-05T13:05:07.155Z,98518.91
2022-08-05T13:07:59.287Z,98514.84
2022-08-05T13:10:20.612Z,98501.78
2022-08-05T13:12:51.256Z,98514.16
2022-08-05T13:15:41.810Z,98506.06
2022-08-05T13:18:20.222Z,98505.16
2022-08-05T13:20:49.130Z,98499.50
2022-08-05T13:23:18.289Z,98494.75
2022-08-05T13:25:52.664Z,98494.16
2022-08-05T13:28:26.892Z,98484.75
2022-08-05T13:30:53.742Z,98483.25
2022-08-05T13:34:21.306Z,98482.53
2022-08-05T13:36:09.250Z,98483.34
2022-08-05T13:38:38.514Z,98478.63
2022-08-05T13:41:09.362Z,98484.81
2022-08-05T13:43:45.446Z,98471.72
2022-08-05T13:47:01.726Z,98473.50
2022-08-05T13:49:12.628Z,98484.81
2022-08-05T13:51:46.614Z,98473.22
2022-08-05T13:54:15.106Z,98484.00
2022-08-05T13:56:45.415Z,98474.56
2022-08-05T13:59:24.032Z,98484.66
2022-08-05T14:01:57.874Z,98486.75
2022-08-05T14:04:53.934Z,98475.66
2022-08-05T14:07:55.781Z,98483.03
2022-08-05T14:22:08.983Z,98481.66
2022-08-05T14:24:19.403Z,98477.72
2022-08-05T14:27:02.010Z,98473.81
2022-08-05T14:29:32.560Z,98470.72
2022-08-05T14:32:12.470Z,98465.13
2022-08-05T14:34:42.619Z,98465.75
2022-08-05T14:37:09.128Z,98458.84
2022-08-05T14:39:50.272Z,98466.19
2022-08-05T14:42:29.346Z,98460.97
2022-08-05T14:44:56.699Z,98461.34
2022-08-05T14:48:02.613Z,98466.84
2022-08-05T14:50:14.247Z,98466.25
2022-08-05T14:52:52.943Z,98461.03
2022-08-05T14:55:20.305Z,98465.38
2022-08-05T14:57:54.803Z,98461.38
2022-08-05T15:00:28.182Z,98465.03
2022-08-05T15:02:56.471Z,98469.34
2022-08-05T15:05:29.536Z,98472.75
2022-08-05T15:08:06.214Z,98473.84
2022-08-05T15:10:41.407Z,98478.34
2022-08-05T15:13:10.082Z,98478.94
2022-08-05T15:15:54.522Z,98472.31
2022-08-05T15:18:23.308Z,98478.81
2022-08-05T15:20:49.978Z,98492.97
2022-08-05T15:23:17.625Z,98496.69
2022-08-05T15:25:53.364Z,98498.28
2022-08-05T15:28:27.221Z,98504.34
2022-08-05T15:30:54.916Z,98515.53
2022-08-05T15:34:04.045Z,98509.88
2022-08-05T15:36:16.884Z,98527.53
2022-08-05T15:38:50.698Z,98526.63
2022-08-05T15:41:57.670Z,98542.09
2022-08-05T15:44:24.196Z,98547.09
2022-08-05T15:46:52.593Z,98554.09
2022-08-05T15:49:27.330Z,98552.56
2022-08-05T15:52:16.422Z,98555.34
2022-08-05T15:54:43.623Z,98561.31
2022-08-05T15:57:11.012Z,98555.78
2022-08-05T15:59:39.480Z,98561.59
2022-08-05T16:02:09.438Z,98566.78
2022-08-05T16:04:41.078Z,98569.16
2022-08-05T16:07:10.559Z,98574.66
2022-08-05T16:09:37.462Z,98571.19
2022-08-05T16:12:09.123Z,98584.22
2022-08-05T16:14:35.992Z,98579.47
2022-08-05T16:17:03.335Z,98596.97
2022-08-05T16:20:05.607Z,98600.16
2022-08-05T16:22:17.061Z,98597.13
2022-08-05T16:24:52.202Z,98604.19
2022-08-05T16:27:18.953Z,98607.47
2022-08-05T16:29:50.821Z,98612.66
2022-08-05T16:32:18.351Z,98615.03
2022-08-05T16:34:54.943Z,98615.91
2022-08-05T16:38:02.383Z,98624.09
2022-08-05T16:40:20.212Z,98617.16
2022-08-05T16:42:55.020Z,98623.97
2022-08-05T16:46:04.916Z,98613.88
2022-08-05T16:48:08.332Z,98618.78
2022-08-05T16:50:37.763Z,98626.00
2022-08-05T16:53:12.322Z,98621.47
2022-08-05T16:55:48.797Z,98626.03
2022-08-05T16:58:15.364Z,98635.69
2022-08-05T17:00:47.031Z,98643.97
2022-08-05T17:03:20.464Z,98647.50
2022-08-05T17:05:54.008Z,98647.66
2022-08-05T17:08:35.986Z,98663.88
2022-08-05T17:11:16.872Z,98661.25
2022-08-05T17:13:44.660Z,98655.63
2022-08-05T17:16:32.883Z,98663.38
2022-08-05T17:18:58.303Z,98666.47
2022-08-05T17:21:24.725Z,98665.59
2022-08-05T17:24:05.450Z,98679.69
2022-08-05T17:26:39.019Z,98678.97
2022-08-05T17:29:10.152Z,98679.06
2022-08-05T17:31:56.976Z,98680.84
2022-08-05T17:34:29.812Z,98687.00
2022-08-05T17:36:59.252Z,98681.41
2022-08-05T17:39:33.955Z,98689.63
2022-08-05T17:42:17.418Z,98692.34
2022-08-05T17:44:50.375Z,98694.56
2022-08-05T17:47:22.837Z,98699.16
2022-08-05T17:49:59.640Z,98700.81
2022-08-05T17:52:27.707Z,98691.53
2022-08-05T17:54:54.794Z,98685.41
2022-08-05T17:57:21.919Z,98691.75
2022-08-05T18:00:05.040Z,98691.88
2022-08-05T18:02:34.079Z,98694.34
2022-08-05T18:05:03.021Z,98707.09
2022-08-05T18:07:41.528Z,98719.22
2022-08-05T18:10:11.025Z,98720.66
2022-08-05T18:12:38.685Z,98726.38
2022-08-05T18:15:06.271Z,98728.09
2022-08-05T18:18:00.988Z,98730.31
2022-08-05T18:20:29.638Z,98733.09
2022-08-05T18:23:00.699Z,98740.59
2022-08-05T18:25:36.921Z,98747.72
2022-08-05T18:28:06.365Z,98758.75
2022-08-05T18:30:36.712Z,98769.47
2022-08-05T18:33:07.329Z,98773.59
2022-08-05T18:35:59.639Z,98783.50
2022-08-05T18:38:26.327Z,98788.75
2022-08-05T18:41:56.901Z,98812.91
2022-08-05T18:43:43.101Z,98824.75
2022-08-05T18:46:19.889Z,98825.28
2022-08-05T18:48:52.009Z,98801.41
2022-08-05T18:52:06.151Z,98814.59
2022-08-05T18:54:25.538Z,98811.84
2022-08-05T18:56:52.233Z,98816.81
2022-08-05T18:59:43.238Z,98830.00
2022-08-05T19:02:27.093Z,98825.28
2022-08-05T19:05:02.354Z,98842.06
2022-08-05T19:07:45.411Z,98841.50
2022-08-05T19:10:14.369Z,98838.22
2022-08-05T19:12:41.292Z,98842.59
2022-08-05T19:15:10.597Z,98857.44
2022-08-05T19:18:08.366Z,98877.75
2022-08-05T19:20:41.725Z,98860.69
2022-08-05T19:24:06.251Z,98843.31
2022-08-05T19:26:02.634Z,98853.50
2022-08-05T19:28:30.820Z,98857.31
2022-08-05T19:30:57.533Z,98869.06
2022-08-05T19:33:35.858Z,98874.50
2022-08-05T19:36:06.988Z,98885.19
2022-08-05T19:38:35.508Z,98885.50
2022-08-05T19:41:02.275Z,98888.78
2022-08-05T19:44:05.830Z,98882.44
2022-08-05T19:46:30.221Z,98891.19
2022-08-05T19:49:01.300Z,98897.72
2022-08-05T19:52:05.490Z,98901.50
2022-08-05T19:54:26.987Z,98898.63
2022-08-05T19:56:57.943Z,98904.06
2022-08-05T19:59:55.837Z,98907.75
2022-08-05T20:02:12.566Z,98907.16
2022-08-05T20:04:42.985Z,98904.78
2022-08-05T20:07:13.442Z,98905.84
2022-08-05T20:09:53.786Z,98919.81
2022-08-05T20:12:22.495Z,98923.63
2022-08-05T20:14:52.225Z,98939.94
2022-08-05T20:17:19.946Z,98932.00
2022-08-05T20:19:50.935Z,98932.88
2022-08-05T20:22:24.709Z,98939.38
2022-08-05T20:24:53.826Z,98938.06
2022-08-05T20:27:21.014Z,98942.81
2022-08-05T20:29:58.298Z,98946.97
2022-08-05T20:32:26.144Z,98935.91
2022-08-05T20:34:52.787Z,98943.03
2022-08-05T20:38:04.937Z,98946.19
2022-08-05T20:40:06.859Z,98947.59
2022-08-05T20:42:33.379Z,98955.47
2022-08-05T20:45:02.003Z,98955.09
2022-08-05T20:47:31.978Z,98961.22
2022-08-05T20:49:59.524Z,98954.09
2022-08-05T20:52:28.350Z,98965.84
2022-08-05T20:55:54.994Z,98962.44
2022-08-05T20:57:44.334Z,98968.72
2022-08-05T21:00:41.432Z,98979.78
2022-08-05T21:03:04.604Z,98988.31
2022-08-05T21:05:47.901Z,98987.34
2022-08-05T21:08:26.708Z,98992.38
2022-08-05T21:11:00.044Z,98997.09
2022-08-05T21:13:48.353Z,98989.06
2022-08-05T21:16:13.783Z,99001.44
2022-08-05T21:18:43.010Z,98998.03
2022-08-05T21:21:12.131Z,99001.34
2022-08-05T21:23:39.004Z,99000.00
2022-08-05T21:26:08.145Z,98998.13
2022-08-05T21:28:39.982Z,99008.44
2022-08-05T21:31:14.255Z,99022.84
2022-08-05T21:33:43.124Z,99021.50
2022-08-05T21:36:14.457Z,99025.66
2022-08-05T21:38:54.720Z,99029.00
2022-08-05T21:41:21.264Z,99019.72
2022-08-05T21:44:01.672Z,99018.38
2022-08-05T21:46:30.161Z,99018.16
2022-08-05T21:48:57.134Z,99030.47
2022-08-05T21:52:22.028Z,99035.63
2022-08-05T21:54:12.963Z,99036.91
2022-08-05T21:56:44.484Z,99039.16
2022-08-05T21:59:24.433Z,99041.72
2022-08-05T22:01:54.596Z,99049.09
2022-08-05T22:04:25.511Z,99049.22
2022-08-05T22:06:52.496Z,99041.88
2022-08-05T22:09:21.119Z,99050.53
2022-08-05T22:11:48.353Z,99044.22
2022-08-05T22:14:33.536Z,99055.88
2022-08-05T22:17:03.818Z,99051.56
2022-08-05T22:20:00.424Z,99043.38
2022-08-05T22:22:27.264Z,99055.63
2022-08-05T22:25:31.231Z,99051.13
2022-08-05T22:28:12.090Z,99050.81
2022-08-05T22:30:55.542Z,99048.09
2022-08-05T22:33:56.615Z,99058.53
2022-08-05T22:36:11.476Z,99060.56
2022-08-05T22:38:42.553Z,99065.44
2022-08-05T22:41:10.188Z,99067.09
2022-08-05T22:43:38.344Z,99076.69
2022-08-05T22:46:13.052Z,99085.47
2022-08-05T22:48:41.136Z,99089.84
2022-08-05T22:51:08.415Z,99091.44
2022-08-05T22:53:42.616Z,99086.44
2022-08-05T22:56:16.534Z,99084.47
2022-08-05T22:58:43.620Z,99076.34
2022-08-05T23:01:10.436Z,99072.78
2022-08-05T23:03:58.021Z,99071.13
2022-08-05T23:06:26.202Z,99060.22
2022-08-05T23:08:52.968Z,99062.69
2022-08-05T23:11:19.463Z,99072.69
2022-08-05T23:13:45.928Z,99062.97
2022-08-05T23:16:26.119Z,99069.72
2022-08-05T23:19:00.104Z,99070.06
2022-08-05T23:21:42.476Z,99069.13
2022-08-05T23:24:11.296Z,99069.13
2022-08-05T23:26:38.158Z,99071.13
2022-08-05T23:29:05.219Z,99071.34
2022-08-05T23:31:31.824Z,99072.69
2022-08-05T23:34:05.217Z,99071.97
2022-08-05T23:36:38.713Z,99065.56
2022-08-05T23:39:08.189Z,99070.75
2022-08-05T23:41:37.322Z,99070.50
2022-08-05T23:44:08.815Z,99070.84
2022-08-05T23:46:37.408Z,99067.69
2022-08-05T23:49:16.422Z,99077.53
2022-08-05T23:52:03.070Z,99082.41
2022-08-05T23:54:38.461Z,99073.63
2022-08-05T23:57:06.788Z,99082.03
